^^
Meteo Knjazevac Station Historical Data
Daily Summary for May 20, 2021 Units:  English    Metric   Both
Daily Weekly Monthly Yearly Custom
  High: Low: Average:
Temperature: 31.1 °F 23.5 °F 26.8 °F
Dew Point: 27.4 °F 21.3 °F 24.2 °F
Humidity: 93% 86% 90%
Wind Speed: 6mph 0mph 2.2mph
Wind Gust: 14mph - -
Wind- - South
Pressure: 30.27 in 30.26 in -
Precipitation: 0.00 in    
Historical Graphs
 
 
Tabular Data for May 20, 2021
Time Temperature Dew Point Pressure Wind Wind Speed Wind Gust Humidity Rainfall Rate (Hourly) solar Conditions
00:00 24.3 °F 22 °F 30.27 in NW 1 mph 4 mph 91% 0.00 in 0 W/m2
00:10 24 °F 21.7 °F 30.27 in West 2 mph 4 mph 91% 0.00 in 0 W/m2
00:20 23.9 °F 21.7 °F 30.27 in NW 1 mph 4 mph 91% 0.00 in 0 W/m2
00:30 24.1 °F 22.4 °F 30.27 in SSW 1 mph 7 mph 93% 0.00 in 0 W/m2
00:40 24.3 °F 22.5 °F 30.27 in Calm   3 mph 93% 0.00 in 0 W/m2
00:50 24.8 °F 23.1 °F 30.27 in Calm   8 mph 93% 0.00 in 0 W/m2
01:00 24.8 °F 23.1 °F 30.27 in WSW 1 mph 3 mph 93% 0.00 in 0 W/m2
01:10 24.9 °F 23.2 °F 30.27 in SE 2 mph 8 mph 93% 0.00 in 0 W/m2
01:20 25.5 °F 23.8 °F 30.27 in SE 6 mph 9 mph 93% 0.00 in 0 W/m2
01:30 25 °F 22.5 °F 30.27 in South 5 mph 10 mph 90% 0.00 in 0 W/m2
01:40 24.3 °F 21.6 °F 30.26 in WSW 2 mph 8 mph 89% 0.00 in 0 W/m2
01:50 24.3 °F 21.8 °F 30.27 in Calm   9 mph 90% 0.00 in 0 W/m2
02:00 24.1 °F 21.6 °F 30.27 in WSW 1 mph 8 mph 90% 0.00 in 0 W/m2
02:10 23.9 °F 21.7 °F 30.26 in WSW 1 mph 4 mph 91% 0.00 in 0 W/m2
02:20 23.5 °F 21.3 °F 30.26 in WNW 1 mph 4 mph 91% 0.00 in 0 W/m2
02:30 23.5 °F 21.3 °F 30.27 in West 1 mph 2 mph 91% 0.00 in 0 W/m2
02:40 23.7 °F 22 °F 30.27 in West 1 mph 4 mph 93% 0.00 in 0 W/m2
02:50 24.3 °F 22.5 °F 30.26 in SSE 1 mph 5 mph 93% 0.00 in 0 W/m2
03:00 25.6 °F 23.9 °F 30.26 in SSE 3 mph 7 mph 93% 0.00 in 0 W/m2
03:10 25.9 °F 23.4 °F 30.26 in SSE 2 mph 6 mph 90% 0.00 in 0 W/m2
03:20 25.9 °F 23.4 °F 30.26 in ESE 1 mph 5 mph 90% 0.00 in 0 W/m2
03:30 25.7 °F 23.2 °F 30.27 in Calm   5 mph 90% 0.00 in 0 W/m2
03:40 26.1 °F 23.5 °F 30.26 in SSE 2 mph 7 mph 90% 0.00 in 0 W/m2
03:50 26.1 °F 23.5 °F 30.26 in WSW 2 mph 7 mph 90% 0.00 in 0 W/m2
04:00 26.7 °F 24.2 °F 30.26 in SSE 2 mph 7 mph 90% 0.00 in 0 W/m2
04:10 27.3 °F 24.7 °F 30.26 in ESE 5 mph 11 mph 90% 0.00 in 0 W/m2
04:20 27.8 °F 25 °F 30.27 in ESE 6 mph 11 mph 89% 0.00 in 0 W/m2
04:30 28.2 °F 25.4 °F 30.26 in SE 1 mph 11 mph 89% 0.00 in 0 W/m2
04:40 28.2 °F 25.4 °F 30.26 in SE 3 mph 7 mph 89% 0.00 in 0 W/m2
04:50 28.4 °F 25.6 °F 30.26 in SE 5 mph 12 mph 89% 0.00 in 0 W/m2
05:00 28.8 °F 25.9 °F 30.26 in SE 1 mph 9 mph 89% 0.00 in 0 W/m2
05:10 28.8 °F 25.9 °F 30.26 in ESE 3 mph 8 mph 89% 0.00 in 0 W/m2
05:20 28.9 °F 26.1 °F 30.27 in SSE 2 mph 10 mph 89% 0.00 in 0 W/m2
05:30 29.1 °F 26.3 °F 30.26 in SSE 3 mph 7 mph 89% 0.00 in 0 W/m2
05:40 29.4 °F 26.3 °F 30.26 in SE 3 mph 10 mph 88% 0.00 in 0 W/m2
05:50 29.7 °F 26.5 °F 30.26 in SSE 3 mph 10 mph 88% 0.00 in 0 W/m2
06:00 30.2 °F 27.1 °F 30.26 in SSE 3 mph 11 mph 88% 0.00 in 0 W/m2
06:10 30.6 °F 26.9 °F 30.27 in South 3 mph 8 mph 86% 0.00 in 0 W/m2
06:20 30.9 °F 27.2 °F 30.27 in SSE 2 mph 14 mph 86% 0.00 in 0 W/m2
06:30 30.9 °F 27.2 °F 30.26 in SSE 5 mph 11 mph 86% 0.00 in 0 W/m2
06:40 31 °F 27.3 °F 30.26 in SSE 3 mph 8 mph 86% 0.00 in 0 W/m2
06:50 31.1 °F 27.4 °F 30.27 in SSE 2 mph 10 mph 86% 0.00 in 0 W/m2
07:00 31.1 °F 27.4 °F 30.27 in SSW 1 mph 9 mph 86% 0.00 in 1 W/m2
07:10 31.1 °F 27.4 °F 30.27 in SSE 2 mph 10 mph 86% 0.00 in 5 W/m2
Knjazevac, Serbia
Compliments of Weather Underground - 2 mb